createdAt,value
2023-05-31T00:00:33.937Z,80.64
2023-05-31T00:03:17.447Z,80.21
2023-05-31T00:06:02.234Z,80.13
2023-05-31T00:08:28.921Z,80.92
2023-05-31T00:11:12.411Z,80.64
2023-05-31T00:13:42.045Z,79.84
2023-05-31T00:16:35.299Z,80.86
2023-05-31T00:19:01.801Z,80.11
2023-05-31T00:21:41.195Z,80.44
2023-05-31T00:24:08.169Z,80.74
2023-05-31T00:26:34.994Z,79.87
2023-05-31T00:29:27.180Z,79.93
2023-05-31T00:34:34.531Z,81.02
2023-05-31T00:37:23.501Z,81.22
2023-05-31T00:40:07.176Z,81.43
2023-05-31T00:42:34.401Z,81.48
2023-05-31T00:48:09.850Z,80.97
2023-05-31T00:50:42.964Z,80.75
2023-05-31T00:53:10.571Z,80.84
2023-05-31T00:55:55.201Z,81.25
2023-05-31T00:58:24.126Z,81.89
2023-05-31T01:01:08.808Z,80.69
2023-05-31T01:03:35.750Z,81.63
2023-05-31T01:06:03.174Z,81.66
2023-05-31T01:08:30.063Z,81.73
2023-05-31T01:11:24.952Z,81.87
2023-05-31T01:14:10.336Z,81.50
2023-05-31T01:17:02.148Z,81.85
2023-05-31T01:20:01.924Z,81.58
2023-05-31T01:22:29.022Z,80.92
2023-05-31T01:25:29.465Z,81.53
2023-05-31T01:28:12.659Z,81.88
2023-05-31T01:30:39.663Z,82.03
2023-05-31T01:33:11.715Z,82.17
2023-05-31T01:35:48.001Z,82.95
2023-05-31T01:40:58.820Z,82.75
2023-05-31T01:43:27.956Z,82.68
2023-05-31T01:46:11.811Z,82.88
2023-05-31T01:48:40.026Z,82.95
2023-05-31T01:51:29.969Z,83.31
2023-05-31T01:54:12.187Z,82.40
2023-05-31T01:56:41.394Z,82.55
2023-05-31T01:59:12.968Z,82.63
2023-05-31T02:09:11.844Z,83.27
2023-05-31T02:11:53.637Z,82.97
2023-05-31T02:14:20.541Z,83.24
2023-05-31T02:16:47.346Z,82.61
2023-05-31T02:19:15.206Z,82.71
2023-05-31T02:21:54.403Z,82.54
2023-05-31T02:27:02.051Z,83.38
2023-05-31T02:29:28.954Z,83.03
2023-05-31T02:32:33.892Z,82.12
2023-05-31T02:42:33.775Z,82.72
2023-05-31T02:45:00.497Z,82.82
2023-05-31T02:50:21.641Z,82.55
2023-05-31T02:52:50.610Z,82.86
2023-05-31T02:55:26.965Z,81.82
2023-05-31T02:57:53.729Z,82.98
2023-05-31T03:00:39.143Z,82.93
2023-05-31T03:06:03.770Z,84.04
2023-05-31T03:08:30.551Z,83.75
2023-05-31T03:10:57.994Z,84.14
2023-05-31T03:13:25.160Z,84.10
2023-05-31T03:16:07.044Z,83.95
2023-05-31T03:18:33.945Z,83.99
2023-05-31T03:21:02.204Z,83.89
2023-05-31T03:23:41.628Z,83.76
2023-05-31T03:28:47.094Z,83.32
2023-05-31T03:31:14.049Z,83.03
2023-05-31T03:33:41.267Z,82.88
2023-05-31T03:36:16.942Z,82.94
2023-05-31T03:38:44.164Z,83.03
2023-05-31T03:41:10.984Z,82.69
2023-05-31T03:43:53.203Z,83.49
2023-05-31T03:46:20.392Z,83.63
2023-05-31T03:48:55.937Z,84.14
2023-05-31T03:51:23.918Z,83.93
2023-05-31T03:53:51.172Z,84.56
2023-05-31T03:56:18.924Z,85.52
2023-05-31T03:59:12.368Z,85.00
2023-05-31T04:01:42.326Z,84.48
2023-05-31T04:04:09.543Z,84.58
2023-05-31T04:06:36.644Z,84.55
2023-05-31T04:09:05.394Z,85.19
2023-05-31T04:11:32.113Z,85.38
2023-05-31T04:16:50.936Z,84.74
2023-05-31T04:19:18.080Z,85.42
2023-05-31T04:21:57.806Z,85.12
2023-05-31T04:27:08.235Z,85.65
2023-05-31T04:29:47.359Z,85.67
2023-05-31T04:32:15.821Z,84.75
2023-05-31T04:34:59.086Z,85.23
2023-05-31T04:37:29.181Z,85.35
2023-05-31T04:40:17.086Z,84.75
2023-05-31T04:42:57.781Z,84.85
2023-05-31T04:45:25.751Z,84.94
2023-05-31T04:47:52.796Z,85.62
2023-05-31T04:50:26.626Z,85.17
2023-05-31T04:52:54.723Z,85.07
2023-05-31T04:56:07.962Z,85.89
2023-05-31T04:58:49.766Z,85.06
2023-05-31T05:01:32.593Z,85.10
2023-05-31T05:03:59.938Z,84.52
2023-05-31T05:06:27.708Z,84.35
2023-05-31T05:09:07.144Z,84.41
2023-05-31T05:11:33.827Z,84.26
2023-05-31T05:14:01.093Z,84.49
2023-05-31T05:19:13.075Z,83.84
2023-05-31T05:21:39.806Z,83.79
2023-05-31T05:24:06.892Z,84.30
2023-05-31T05:26:34.875Z,83.33
2023-05-31T05:31:42.113Z,83.74
2023-05-31T05:34:10.747Z,83.83
2023-05-31T05:36:58.429Z,83.49
2023-05-31T05:39:25.175Z,83.24
2023-05-31T05:42:10.492Z,83.56
2023-05-31T05:44:55.718Z,83.18
2023-05-31T05:47:36.199Z,82.76
2023-05-31T05:50:15.696Z,82.71
2023-05-31T05:52:45.921Z,82.80
2023-05-31T05:55:15.899Z,82.14
2023-05-31T05:57:52.847Z,82.79
2023-05-31T06:00:20.550Z,81.81
2023-05-31T06:02:47.182Z,81.43
2023-05-31T06:05:26.808Z,81.49
2023-05-31T06:07:55.218Z,81.56
2023-05-31T06:10:22.021Z,81.00
2023-05-31T06:12:48.708Z,81.18
2023-05-31T06:15:16.437Z,80.60
2023-05-31T06:17:44.069Z,80.49
2023-05-31T06:20:12.023Z,80.50
2023-05-31T06:22:38.923Z,80.95
2023-05-31T06:25:06.224Z,80.23
2023-05-31T06:27:32.848Z,79.75
2023-05-31T06:29:59.728Z,79.31
2023-05-31T06:32:26.989Z,79.04
2023-05-31T06:34:54.394Z,78.94
2023-05-31T06:37:22.910Z,78.89
2023-05-31T06:39:52.847Z,78.74
2023-05-31T06:42:28.504Z,78.67
2023-05-31T06:44:57.348Z,77.89
2023-05-31T06:47:38.693Z,77.32
2023-05-31T06:52:47.048Z,76.91
2023-05-31T06:55:13.692Z,76.74
2023-05-31T06:57:40.180Z,76.00
2023-05-31T07:00:08.490Z,75.79
2023-05-31T07:02:35.331Z,75.48
2023-05-31T07:05:02.079Z,74.88
2023-05-31T07:07:41.132Z,74.51
2023-05-31T07:10:08.399Z,73.36
2023-05-31T07:12:35.285Z,73.59
2023-05-31T07:15:02.052Z,73.44
2023-05-31T07:17:30.616Z,73.60
2023-05-31T07:19:57.705Z,72.95
2023-05-31T07:22:24.398Z,73.09
2023-05-31T07:24:51.109Z,72.11
2023-05-31T07:27:17.976Z,72.19
2023-05-31T07:29:44.504Z,71.34
2023-05-31T07:32:14.340Z,71.43
2023-05-31T07:35:02.884Z,69.83
2023-05-31T07:37:29.599Z,69.27
2023-05-31T07:39:56.244Z,69.83
2023-05-31T07:42:22.981Z,69.06
2023-05-31T07:45:07.664Z,69.03
2023-05-31T07:47:36.143Z,69.14
2023-05-31T07:50:02.848Z,68.40
2023-05-31T07:52:29.478Z,67.91
2023-05-31T07:55:01.604Z,67.79
2023-05-31T07:57:29.651Z,67.33
2023-05-31T07:59:56.435Z,66.76
2023-05-31T08:02:23.032Z,66.87
2023-05-31T08:04:52.324Z,65.60
2023-05-31T08:07:28.604Z,66.20
2023-05-31T08:09:55.662Z,64.79
2023-05-31T08:12:38.297Z,64.67
2023-05-31T08:15:07.048Z,64.08
2023-05-31T08:24:41.060Z,64.37
2023-05-31T08:35:16.995Z,63.87
2023-05-31T08:37:56.248Z,63.51
2023-05-31T08:40:43.077Z,63.45
2023-05-31T08:49:58.982Z,62.28
2023-05-31T08:57:31.506Z,62.84
2023-05-31T09:21:49.107Z,59.41
2023-05-31T09:25:06.128Z,60.17
2023-05-31T09:28:23.463Z,59.17
2023-05-31T09:35:01.542Z,59.77
2023-05-31T09:40:35.798Z,57.79
2023-05-31T09:46:11.809Z,58.19
2023-05-31T09:57:41.463Z,56.61
2023-05-31T10:04:26.744Z,55.99
2023-05-31T10:07:24.812Z,55.89
2023-05-31T10:10:59.683Z,55.50
2023-05-31T10:27:52.318Z,53.89
2023-05-31T10:34:14.140Z,52.75
2023-05-31T10:36:58.867Z,51.81
2023-05-31T10:40:06.372Z,52.31
2023-05-31T10:43:26.322Z,52.40
2023-05-31T10:46:21.907Z,51.89
2023-05-31T10:49:06.633Z,52.42
2023-05-31T10:54:52.265Z,51.05
2023-05-31T10:57:31.890Z,52.10
2023-05-31T11:00:05.662Z,51.29
2023-05-31T11:02:35.813Z,50.70
2023-05-31T11:06:31.510Z,50.68
2023-05-31T11:12:26.700Z,49.86
2023-05-31T11:26:52.873Z,50.56
2023-05-31T11:30:12.718Z,49.46
2023-05-31T11:36:02.934Z,49.13
2023-05-31T11:38:33.892Z,47.61
2023-05-31T11:41:46.593Z,48.66
2023-05-31T11:44:21.428Z,47.32
2023-05-31T11:47:01.899Z,47.75
2023-05-31T11:49:40.382Z,48.87
2023-05-31T11:52:21.989Z,48.66
2023-05-31T11:54:58.131Z,47.61
2023-05-31T11:57:25.084Z,46.34
2023-05-31T12:03:25.931Z,46.37
2023-05-31T12:06:06.130Z,47.20
2023-05-31T12:08:54.328Z,46.88
2023-05-31T12:12:09.358Z,46.18
2023-05-31T12:14:36.679Z,45.10
2023-05-31T12:17:11.507Z,46.12
2023-05-31T12:20:02.189Z,45.54
2023-05-31T12:22:49.929Z,45.79
2023-05-31T12:25:28.343Z,45.03
2023-05-31T12:27:55.645Z,45.14
2023-05-31T12:30:47.936Z,45.12
2023-05-31T12:33:21.417Z,45.90
2023-05-31T12:36:00.570Z,46.02
2023-05-31T12:38:30.796Z,46.12
2023-05-31T12:41:18.019Z,43.93
2023-05-31T12:43:51.058Z,44.67
2023-05-31T12:46:21.531Z,44.91
2023-05-31T12:49:16.263Z,44.20
2023-05-31T12:52:09.549Z,44.77
2023-05-31T12:54:46.557Z,44.66
2023-05-31T12:57:13.284Z,43.50
2023-05-31T12:59:41.196Z,44.33
2023-05-31T13:02:31.804Z,44.10
2023-05-31T13:04:59.172Z,43.72
2023-05-31T13:07:43.521Z,44.16
2023-05-31T13:10:25.622Z,44.67
2023-05-31T13:12:52.374Z,44.37
2023-05-31T13:15:19.634Z,43.13
2023-05-31T13:17:46.304Z,43.30
2023-05-31T13:20:25.164Z,43.36
2023-05-31T13:22:51.732Z,42.69
2023-05-31T13:28:12.165Z,43.70
2023-05-31T13:30:39.079Z,42.58
2023-05-31T13:33:23.818Z,41.82
2023-05-31T13:35:57.034Z,42.69
2023-05-31T13:38:27.109Z,41.79
2023-05-31T13:40:53.753Z,42.56
2023-05-31T13:43:38.241Z,42.87
2023-05-31T13:46:06.245Z,44.56
2023-05-31T13:48:33.452Z,42.44
2023-05-31T13:51:00.437Z,41.49
2023-05-31T13:53:27.504Z,42.87
2023-05-31T13:56:03.105Z,44.72
2023-05-31T13:58:34.569Z,43.43
2023-05-31T14:01:03.161Z,42.53
2023-05-31T14:03:30.095Z,42.46
2023-05-31T14:05:57.234Z,41.69
2023-05-31T14:08:23.875Z,41.08
2023-05-31T14:14:40.902Z,46.77
2023-05-31T14:17:10.748Z,48.79
2023-05-31T14:19:59.307Z,48.30
2023-05-31T14:22:26.008Z,48.72
2023-05-31T14:24:52.536Z,49.11
2023-05-31T14:27:19.893Z,49.97
2023-05-31T14:29:46.318Z,50.07
2023-05-31T14:32:15.975Z,49.81
2023-05-31T14:34:44.808Z,49.74
2023-05-31T14:37:15.402Z,49.93
2023-05-31T14:39:44.640Z,49.32
2023-05-31T14:45:44.532Z,50.75
2023-05-31T14:48:22.704Z,50.91
2023-05-31T14:57:42.931Z,51.52
2023-05-31T15:00:13.461Z,51.15
2023-05-31T15:02:39.930Z,52.08
2023-05-31T15:05:07.141Z,51.57
2023-05-31T15:07:33.555Z,51.89
2023-05-31T15:10:04.359Z,51.52
2023-05-31T15:12:30.926Z,52.11
2023-05-31T15:14:57.384Z,50.71
2023-05-31T15:31:36.787Z,51.18
2023-05-31T15:37:52.458Z,50.30
2023-05-31T15:40:22.190Z,50.59
2023-05-31T15:42:54.736Z,49.93
2023-05-31T15:45:27.434Z,49.71
2023-05-31T15:47:54.148Z,50.96
2023-05-31T15:50:20.903Z,51.33
2023-05-31T15:52:47.413Z,51.13
2023-05-31T15:55:13.969Z,50.42
2023-05-31T15:57:44.085Z,50.87
2023-05-31T16:00:11.115Z,50.27
2023-05-31T16:02:41.362Z,49.90
2023-05-31T16:05:28.638Z,49.57
2023-05-31T16:10:36.607Z,49.01
2023-05-31T16:13:08.019Z,49.01
2023-05-31T16:15:35.808Z,48.87
2023-05-31T17:33:06.291Z,54.14
2023-05-31T17:47:36.785Z,55.67
2023-05-31T17:50:06.888Z,56.10
2023-05-31T17:53:07.905Z,56.10
2023-05-31T17:58:28.521Z,57.21
